EDT,Max TemperatureF,Mean TemperatureF,Min TemperatureF,Max Dew PointF,MeanDew PointF,Min DewpointF,Max Humidity, Mean Humidity, Min Humidity, Max Sea Level PressureIn, Mean Sea Level PressureIn, Min Sea Level PressureIn, Max VisibilityMiles, Mean VisibilityMiles, Min VisibilityMiles, Max Wind SpeedMPH, Mean Wind SpeedMPH, Max Gust SpeedMPH,PrecipitationIn, CloudCover, Events, WindDirDegrees
2013-8-1,82,70,58,65,60,55,100,70,40,30.01,29.98,29.95,10,4,0,23,7,29,0.00,2,Fog,285
2013-8-2,84,70,55,68,62,55,100,78,55,29.99,29.94,29.90,10,10,10,18,7,28,0.20,3,Rain,221
2013-8-3,82,70,58,67,63,51,100,76,51,30.09,29.99,29.94,10,8,2,17,5,21,0.50,4,Rain-Thunderstorm,351
2013-8-4,78,66,53,58,56,53,100,71,42,30.18,30.14,30.10,10,10,10,10,3,15,0.00,1,,4
2013-8-5,79,68,57,65,59,55,93,72,50,30.12,30.04,29.93,10,10,10,10,3,15,0.03,4,Rain,103
2013-8-6,81,74,66,70,66,61,97,84,71,29.94,29.90,29.88,10,10,7,8,3,12,0.00,6,,177
2013-8-7,83,76,69,74,71,68,100,87,74,29.91,29.87,29.83,10,8,4,12,4,16,0.00,5,,206
2013-8-8,77,73,68,72,68,64,100,91,82,29.98,29.94,29.90,10,7,1,13,7,17,0.52,7,Rain-Thunderstorm,35
2013-8-9,82,72,61,66,62,58,93,69,45,30.04,29.99,29.94,10,10,10,9,3,14,0.00,1,,353
2013-8-10,84,74,64,68,64,60,100,74,47,30.10,30.07,30.05,10,9,6,12,3,16,0.00,1,,310
2013-8-11,83,72,60,67,63,58,100,76,51,30.13,30.09,30.06,10,10,5,12,2,15,0.00,2,,323
2013-8-12,83,72,60,69,64,60,100,79,58,30.07,29.99,29.88,10,8,0,17,3,23,0.48,1,Fog-Rain-Thunderstorm,247
2013-8-13,72,63,53,66,58,48,100,74,47,30.13,29.99,29.88,10,8,2,18,8,25,0.00,2,,2
2013-8-14,72,60,48,55,49,46,100,74,47,30.22,30.18,30.13,10,10,10,17,5,21,0.00,2,,14
2013-8-15,74,61,47,56,50,48,100,72,44,30.20,30.16,30.11,10,8,0,10,2,,0.00,1,Fog,46
2013-8-16,77,68,58,59,55,47,100,69,38,30.18,30.15,30.13,10,10,10,10,2,14,0.01,1,Rain,46
2013-8-17,79,68,57,58,56,55,93,69,45,30.23,30.18,30.15,10,10,10,14,6,18,0.00,1,,65
2013-8-18,83,71,59,63,59,56,90,69,47,30.19,30.14,30.09,10,10,7,9,2,12,0.00,2,,74
2013-8-19,83,71,58,66,61,57,100,74,47,30.14,30.11,30.06,10,6,0,7,1,13,0.00,1,Fog,300
2013-8-20,86,73,60,66,63,60,100,72,44,30.15,30.10,30.06,10,7,2,12,2,15,0.00,1,,189
2013-8-21,88,76,63,69,65,62,100,72,43,30.13,30.09,30.02,10,8,1,12,3,16,0.00,0,Fog,238
2013-8-22,75,70,64,68,67,65,100,90,79,30.14,30.08,30.02,10,9,6,13,3,18,T,4,Rain,336
2013-8-23,82,72,61,66,63,60,100,76,51,30.16,30.11,30.08,10,4,0,10,4,13,0.00,4,Fog,37
2013-8-24,85,71,57,60,55,48,93,62,31,30.26,30.22,30.16,10,10,10,13,5,16,0.00,0,,75
2013-8-25,87,72,57,64,59,56,100,69,37,30.30,30.24,30.20,10,10,10,12,3,15,0.00,0,,210
2013-8-26,91,76,61,70,65,58,93,70,47,30.22,30.14,30.05,10,10,6,15,4,22,0.00,0,,244
2013-8-27,91,80,68,72,70,67,100,78,56,30.06,29.99,29.93,10,8,4,15,6,21,0.00,0,,240
2013-8-28,92,82,72,74,70,65,93,73,52,30.01,29.94,29.91,10,9,6,16,8,24,0.00,3,,294
2013-8-29,89,80,70,70,68,64,93,70,46,30.07,30.02,29.97,10,8,4,9,4,20,0.00,5,,54
2013-8-30,93,80,66,77,70,65,97,73,49,29.98,29.88,29.80,10,9,2,20,3,25,0.35,3,Rain-Thunderstorm,239
2013-8-31,87,76,65,70,68,65,100,79,57,29.84,29.80,29.73,10,10,3,20,4,25,T,1,Thunderstorm,82